sensor_id;sensor_type;location;lat;lon;timestamp;P1;durP1;ratioP1;P2;durP2;ratioP2
6203;SDS011;3135;42.602;23.468;2024-01-10T00:01:17;11.15;;;4.28;;
6203;SDS011;3135;42.602;23.468;2024-01-10T00:03:43;10.63;;;3.80;;
6203;SDS011;3135;42.602;23.468;2024-01-10T00:06:09;8.73;;;3.65;;
6203;SDS011;3135;42.602;23.468;2024-01-10T00:08:35;8.37;;;3.43;;
6203;SDS011;3135;42.602;23.468;2024-01-10T00:11:01;9.30;;;3.92;;
6203;SDS011;3135;42.602;23.468;2024-01-10T00:13:26;9.33;;;4.10;;
6203;SDS011;3135;42.602;23.468;2024-01-10T00:15:52;7.53;;;4.35;;
6203;SDS011;3135;42.602;23.468;2024-01-10T00:18:18;9.65;;;3.45;;
6203;SDS011;3135;42.602;23.468;2024-01-10T00:20:44;11.40;;;4.40;;
6203;SDS011;3135;42.602;23.468;2024-01-10T00:23:09;9.50;;;4.03;;
6203;SDS011;3135;42.602;23.468;2024-01-10T00:25:35;10.90;;;4.20;;
6203;SDS011;3135;42.602;23.468;2024-01-10T00:28:00;12.07;;;4.70;;
6203;SDS011;3135;42.602;23.468;2024-01-10T00:30:25;12.53;;;4.57;;
6203;SDS011;3135;42.602;23.468;2024-01-10T00:32:51;8.27;;;3.57;;
6203;SDS011;3135;42.602;23.468;2024-01-10T00:35:16;10.37;;;4.43;;
6203;SDS011;3135;42.602;23.468;2024-01-10T00:37:42;14.15;;;5.15;;
6203;SDS011;3135;42.602;23.468;2024-01-10T00:40:07;5.63;;;2.80;;
6203;SDS011;3135;42.602;23.468;2024-01-10T00:42:33;4.30;;;2.08;;
6203;SDS011;3135;42.602;23.468;2024-01-10T00:44:59;5.77;;;2.40;;
6203;SDS011;3135;42.602;23.468;2024-01-10T00:47:24;3.07;;;1.57;;
6203;SDS011;3135;42.602;23.468;2024-01-10T00:49:49;1.75;;;1.20;;
6203;SDS011;3135;42.602;23.468;2024-01-10T00:52:15;2.63;;;1.40;;
6203;SDS011;3135;42.602;23.468;2024-01-10T00:54:40;1.50;;;1.00;;
6203;SDS011;3135;42.602;23.468;2024-01-10T00:57:06;2.30;;;1.10;;
6203;SDS011;3135;42.602;23.468;2024-01-10T00:59:31;2.57;;;1.23;;
6203;SDS011;3135;42.602;23.468;2024-01-10T01:01:57;2.07;;;0.90;;
6203;SDS011;3135;42.602;23.468;2024-01-10T01:04:22;1.77;;;1.00;;
6203;SDS011;3135;42.602;23.468;2024-01-10T01:06:48;6.68;;;3.13;;
6203;SDS011;3135;42.602;23.468;2024-01-10T01:09:13;4.67;;;2.63;;
6203;SDS011;3135;42.602;23.468;2024-01-10T01:11:40;5.75;;;2.88;;
6203;SDS011;3135;42.602;23.468;2024-01-10T01:14:06;5.53;;;3.10;;
6203;SDS011;3135;42.602;23.468;2024-01-10T01:16:32;5.15;;;1.98;;
6203;SDS011;3135;42.602;23.468;2024-01-10T01:18:59;2.63;;;1.73;;
6203;SDS011;3135;42.602;23.468;2024-01-10T01:21:24;7.70;;;3.05;;
6203;SDS011;3135;42.602;23.468;2024-01-10T01:23:50;3.77;;;2.10;;
6203;SDS011;3135;42.602;23.468;2024-01-10T01:26:16;4.30;;;2.20;;
6203;SDS011;3135;42.602;23.468;2024-01-10T01:28:41;4.45;;;2.00;;
6203;SDS011;3135;42.602;23.468;2024-01-10T01:31:06;6.27;;;2.27;;
6203;SDS011;3135;42.602;23.468;2024-01-10T01:33:32;5.23;;;2.37;;
6203;SDS011;3135;42.602;23.468;2024-01-10T01:35:57;3.70;;;2.50;;
6203;SDS011;3135;42.602;23.468;2024-01-10T01:38:23;8.05;;;3.25;;
6203;SDS011;3135;42.602;23.468;2024-01-10T01:40:49;5.15;;;2.30;;
6203;SDS011;3135;42.602;23.468;2024-01-10T01:43:18;5.90;;;2.75;;
6203;SDS011;3135;42.602;23.468;2024-01-10T01:45:44;9.18;;;3.22;;
6203;SDS011;3135;42.602;23.468;2024-01-10T01:48:10;8.52;;;3.05;;
6203;SDS011;3135;42.602;23.468;2024-01-10T01:50:35;3.87;;;2.53;;
6203;SDS011;3135;42.602;23.468;2024-01-10T01:53:01;7.60;;;2.45;;
6203;SDS011;3135;42.602;23.468;2024-01-10T01:55:26;6.97;;;2.80;;
6203;SDS011;3135;42.602;23.468;2024-01-10T01:57:52;5.70;;;2.60;;
6203;SDS011;3135;42.602;23.468;2024-01-10T02:00:17;8.40;;;3.08;;
6203;SDS011;3135;42.602;23.468;2024-01-10T02:02:43;6.68;;;2.63;;
6203;SDS011;3135;42.602;23.468;2024-01-10T02:05:09;5.80;;;2.80;;
6203;SDS011;3135;42.602;23.468;2024-01-10T02:07:34;8.13;;;2.60;;
6203;SDS011;3135;42.602;23.468;2024-01-10T02:10:00;8.13;;;2.90;;
6203;SDS011;3135;42.602;23.468;2024-01-10T02:12:25;3.97;;;2.40;;
6203;SDS011;3135;42.602;23.468;2024-01-10T02:14:51;6.47;;;2.90;;
6203;SDS011;3135;42.602;23.468;2024-01-10T02:17:17;4.93;;;2.55;;
6203;SDS011;3135;42.602;23.468;2024-01-10T02:19:42;5.00;;;2.00;;
6203;SDS011;3135;42.602;23.468;2024-01-10T02:22:08;3.85;;;1.90;;
6203;SDS011;3135;42.602;23.468;2024-01-10T02:24:36;4.65;;;2.50;;
6203;SDS011;3135;42.602;23.468;2024-01-10T02:27:02;4.20;;;2.17;;
6203;SDS011;3135;42.602;23.468;2024-01-10T02:29:28;4.13;;;2.35;;
6203;SDS011;3135;42.602;23.468;2024-01-10T02:31:53;10.13;;;2.87;;
6203;SDS011;3135;42.602;23.468;2024-01-10T02:34:19;4.57;;;2.30;;
6203;SDS011;3135;42.602;23.468;2024-01-10T02:36:44;6.82;;;2.55;;
6203;SDS011;3135;42.602;23.468;2024-01-10T02:39:10;6.00;;;2.77;;
6203;SDS011;3135;42.602;23.468;2024-01-10T02:41:36;3.83;;;2.35;;
6203;SDS011;3135;42.602;23.468;2024-01-10T02:44:01;4.63;;;2.60;;
6203;SDS011;3135;42.602;23.468;2024-01-10T02:46:27;5.43;;;2.38;;
6203;SDS011;3135;42.602;23.468;2024-01-10T02:48:55;5.72;;;2.50;;
6203;SDS011;3135;42.602;23.468;2024-01-10T02:51:21;4.60;;;2.23;;
6203;SDS011;3135;42.602;23.468;2024-01-10T02:53:47;3.83;;;2.10;;
6203;SDS011;3135;42.602;23.468;2024-01-10T02:56:12;4.07;;;2.33;;
6203;SDS011;3135;42.602;23.468;2024-01-10T02:58:37;4.18;;;2.10;;
6203;SDS011;3135;42.602;23.468;2024-01-10T03:01:03;6.95;;;2.10;;
6203;SDS011;3135;42.602;23.468;2024-01-10T03:03:28;6.53;;;2.10;;
6203;SDS011;3135;42.602;23.468;2024-01-10T03:05:54;3.73;;;2.07;;
6203;SDS011;3135;42.602;23.468;2024-01-10T03:08:19;11.30;;;4.13;;
6203;SDS011;3135;42.602;23.468;2024-01-10T03:10:44;16.10;;;4.78;;
6203;SDS011;3135;42.602;23.468;2024-01-10T03:13:10;6.73;;;2.73;;
6203;SDS011;3135;42.602;23.468;2024-01-10T03:15:35;4.73;;;2.40;;
6203;SDS011;3135;42.602;23.468;2024-01-10T03:18:01;5.70;;;2.43;;
6203;SDS011;3135;42.602;23.468;2024-01-10T03:20:26;4.85;;;2.58;;
6203;SDS011;3135;42.602;23.468;2024-01-10T03:22:52;5.37;;;2.47;;
6203;SDS011;3135;42.602;23.468;2024-01-10T03:25:17;6.60;;;2.80;;
6203;SDS011;3135;42.602;23.468;2024-01-10T03:27:42;4.80;;;2.40;;
6203;SDS011;3135;42.602;23.468;2024-01-10T03:30:08;5.17;;;2.20;;
6203;SDS011;3135;42.602;23.468;2024-01-10T03:32:34;5.93;;;2.67;;
6203;SDS011;3135;42.602;23.468;2024-01-10T03:34:59;4.53;;;2.13;;
6203;SDS011;3135;42.602;23.468;2024-01-10T03:37:24;4.30;;;2.30;;
6203;SDS011;3135;42.602;23.468;2024-01-10T03:39:50;5.37;;;2.37;;
6203;SDS011;3135;42.602;23.468;2024-01-10T03:42:15;6.80;;;2.70;;
6203;SDS011;3135;42.602;23.468;2024-01-10T03:44:41;6.72;;;3.22;;
6203;SDS011;3135;42.602;23.468;2024-01-10T03:47:06;5.60;;;2.50;;
6203;SDS011;3135;42.602;23.468;2024-01-10T03:49:32;3.50;;;2.20;;
6203;SDS011;3135;42.602;23.468;2024-01-10T03:51:57;6.60;;;2.40;;
6203;SDS011;3135;42.602;23.468;2024-01-10T03:54:22;5.57;;;2.20;;
6203;SDS011;3135;42.602;23.468;2024-01-10T03:56:48;3.90;;;2.50;;
6203;SDS011;3135;42.602;23.468;2024-01-10T03:59:13;4.47;;;2.17;;
6203;SDS011;3135;42.602;23.468;2024-01-10T04:01:38;4.53;;;2.53;;
6203;SDS011;3135;42.602;23.468;2024-01-10T04:04:04;4.40;;;2.20;;
6203;SDS011;3135;42.602;23.468;2024-01-10T04:06:30;5.03;;;2.40;;
6203;SDS011;3135;42.602;23.468;2024-01-10T04:08:55;3.95;;;2.13;;
6203;SDS011;3135;42.602;23.468;2024-01-10T04:11:21;3.53;;;2.33;;
6203;SDS011;3135;42.602;23.468;2024-01-10T04:13:46;6.50;;;2.33;;
6203;SDS011;3135;42.602;23.468;2024-01-10T04:16:12;5.80;;;2.87;;
6203;SDS011;3135;42.602;23.468;2024-01-10T04:18:38;6.43;;;2.65;;
6203;SDS011;3135;42.602;23.468;2024-01-10T04:21:03;3.95;;;2.60;;
6203;SDS011;3135;42.602;23.468;2024-01-10T04:23:29;6.20;;;2.80;;
6203;SDS011;3135;42.602;23.468;2024-01-10T04:25:55;5.00;;;2.70;;
6203;SDS011;3135;42.602;23.468;2024-01-10T04:28:21;6.15;;;2.70;;
6203;SDS011;3135;42.602;23.468;2024-01-10T04:30:47;5.90;;;2.43;;
6203;SDS011;3135;42.602;23.468;2024-01-10T04:33:12;7.10;;;2.63;;
6203;SDS011;3135;42.602;23.468;2024-01-10T04:35:38;7.03;;;3.40;;
6203;SDS011;3135;42.602;23.468;2024-01-10T04:38:03;4.43;;;2.60;;
6203;SDS011;3135;42.602;23.468;2024-01-10T04:40:28;8.40;;;3.37;;
6203;SDS011;3135;42.602;23.468;2024-01-10T04:42:54;7.63;;;3.22;;
6203;SDS011;3135;42.602;23.468;2024-01-10T04:45:20;10.07;;;3.30;;
6203;SDS011;3135;42.602;23.468;2024-01-10T04:47:45;9.65;;;4.30;;
6203;SDS011;3135;42.602;23.468;2024-01-10T04:50:11;9.37;;;3.60;;
6203;SDS011;3135;42.602;23.468;2024-01-10T04:52:36;11.60;;;4.53;;
6203;SDS011;3135;42.602;23.468;2024-01-10T04:55:02;6.85;;;3.90;;
6203;SDS011;3135;42.602;23.468;2024-01-10T04:57:29;10.63;;;3.73;;
6203;SDS011;3135;42.602;23.468;2024-01-10T04:59:54;5.22;;;3.30;;
6203;SDS011;3135;42.602;23.468;2024-01-10T05:02:20;8.83;;;3.83;;
6203;SDS011;3135;42.602;23.468;2024-01-10T05:04:45;8.33;;;3.37;;
6203;SDS011;3135;42.602;23.468;2024-01-10T05:07:11;8.27;;;3.73;;
6203;SDS011;3135;42.602;23.468;2024-01-10T05:09:36;8.75;;;3.55;;
6203;SDS011;3135;42.602;23.468;2024-01-10T05:12:02;5.77;;;3.60;;
6203;SDS011;3135;42.602;23.468;2024-01-10T05:14:28;6.55;;;3.15;;
6203;SDS011;3135;42.602;23.468;2024-01-10T05:16:53;6.17;;;3.20;;
6203;SDS011;3135;42.602;23.468;2024-01-10T05:19:19;8.82;;;3.67;;
6203;SDS011;3135;42.602;23.468;2024-01-10T05:21:45;8.20;;;3.43;;
6203;SDS011;3135;42.602;23.468;2024-01-10T05:24:10;23.42;;;12.90;;
6203;SDS011;3135;42.602;23.468;2024-01-10T05:26:36;8.13;;;4.33;;
6203;SDS011;3135;42.602;23.468;2024-01-10T05:29:01;8.27;;;3.80;;
6203;SDS011;3135;42.602;23.468;2024-01-10T05:31:26;7.53;;;3.50;;
6203;SDS011;3135;42.602;23.468;2024-01-10T05:33:52;6.43;;;3.90;;
6203;SDS011;3135;42.602;23.468;2024-01-10T05:36:21;6.67;;;3.33;;
6203;SDS011;3135;42.602;23.468;2024-01-10T05:38:47;44.70;;;11.63;;
6203;SDS011;3135;42.602;23.468;2024-01-10T05:41:13;8.77;;;4.00;;
6203;SDS011;3135;42.602;23.468;2024-01-10T05:43:39;7.80;;;3.08;;
6203;SDS011;3135;42.602;23.468;2024-01-10T05:46:05;7.70;;;3.50;;
6203;SDS011;3135;42.602;23.468;2024-01-10T05:48:30;4.93;;;2.97;;
6203;SDS011;3135;42.602;23.468;2024-01-10T05:50:57;7.90;;;3.55;;
6203;SDS011;3135;42.602;23.468;2024-01-10T05:53:23;6.77;;;3.27;;
6203;SDS011;3135;42.602;23.468;2024-01-10T05:55:49;9.90;;;3.80;;
6203;SDS011;3135;42.602;23.468;2024-01-10T05:58:16;7.15;;;3.45;;
6203;SDS011;3135;42.602;23.468;2024-01-10T06:00:41;8.25;;;3.45;;
6203;SDS011;3135;42.602;23.468;2024-01-10T06:03:07;7.43;;;3.67;;
6203;SDS011;3135;42.602;23.468;2024-01-10T06:05:32;7.45;;;3.75;;
6203;SDS011;3135;42.602;23.468;2024-01-10T06:07:58;9.70;;;3.55;;
6203;SDS011;3135;42.602;23.468;2024-01-10T06:10:23;7.13;;;3.73;;
6203;SDS011;3135;42.602;23.468;2024-01-10T06:12:49;8.32;;;3.75;;
6203;SDS011;3135;42.602;23.468;2024-01-10T06:15:14;7.93;;;3.47;;
6203;SDS011;3135;42.602;23.468;2024-01-10T06:17:40;8.30;;;3.50;;
6203;SDS011;3135;42.602;23.468;2024-01-10T06:20:05;6.07;;;3.45;;
6203;SDS011;3135;42.602;23.468;2024-01-10T06:22:32;11.07;;;4.32;;
6203;SDS011;3135;42.602;23.468;2024-01-10T06:24:58;6.85;;;3.63;;
6203;SDS011;3135;42.602;23.468;2024-01-10T06:27:23;9.00;;;4.03;;
6203;SDS011;3135;42.602;23.468;2024-01-10T06:29:49;9.23;;;3.83;;
6203;SDS011;3135;42.602;23.468;2024-01-10T06:32:14;9.13;;;3.78;;
6203;SDS011;3135;42.602;23.468;2024-01-10T06:34:40;7.50;;;3.57;;
6203;SDS011;3135;42.602;23.468;2024-01-10T06:37:06;6.73;;;3.67;;
6203;SDS011;3135;42.602;23.468;2024-01-10T06:39:34;7.30;;;3.78;;
6203;SDS011;3135;42.602;23.468;2024-01-10T06:42:00;11.63;;;4.70;;
6203;SDS011;3135;42.602;23.468;2024-01-10T06:44:25;9.90;;;4.40;;
6203;SDS011;3135;42.602;23.468;2024-01-10T06:46:52;8.98;;;3.65;;
6203;SDS011;3135;42.602;23.468;2024-01-10T06:49:18;7.90;;;4.27;;
6203;SDS011;3135;42.602;23.468;2024-01-10T06:51:43;9.70;;;4.23;;
6203;SDS011;3135;42.602;23.468;2024-01-10T06:54:09;8.43;;;3.90;;
6203;SDS011;3135;42.602;23.468;2024-01-10T06:56:35;7.77;;;4.23;;
6203;SDS011;3135;42.602;23.468;2024-01-10T06:59:00;7.87;;;4.50;;
6203;SDS011;3135;42.602;23.468;2024-01-10T07:01:27;4.97;;;3.20;;
6203;SDS011;3135;42.602;23.468;2024-01-10T07:03:53;7.27;;;3.20;;
6203;SDS011;3135;42.602;23.468;2024-01-10T07:06:21;7.28;;;3.65;;
6203;SDS011;3135;42.602;23.468;2024-01-10T07:08:48;5.65;;;3.15;;
6203;SDS011;3135;42.602;23.468;2024-01-10T07:11:18;6.22;;;2.75;;
6203;SDS011;3135;42.602;23.468;2024-01-10T07:13:46;8.02;;;3.53;;
6203;SDS011;3135;42.602;23.468;2024-01-10T07:16:12;14.10;;;5.50;;
6203;SDS011;3135;42.602;23.468;2024-01-10T07:18:40;12.48;;;4.70;;
6203;SDS011;3135;42.602;23.468;2024-01-10T07:21:06;9.60;;;4.27;;
6203;SDS011;3135;42.602;23.468;2024-01-10T07:23:31;12.52;;;4.60;;
6203;SDS011;3135;42.602;23.468;2024-01-10T07:25:57;9.00;;;4.40;;
6203;SDS011;3135;42.602;23.468;2024-01-10T07:28:23;13.07;;;4.65;;
6203;SDS011;3135;42.602;23.468;2024-01-10T07:30:48;10.20;;;4.17;;
6203;SDS011;3135;42.602;23.468;2024-01-10T07:33:14;9.27;;;4.13;;
6203;SDS011;3135;42.602;23.468;2024-01-10T07:35:40;10.33;;;4.40;;
6203;SDS011;3135;42.602;23.468;2024-01-10T07:38:05;9.38;;;3.97;;
6203;SDS011;3135;42.602;23.468;2024-01-10T07:40:34;12.70;;;5.37;;
6203;SDS011;3135;42.602;23.468;2024-01-10T07:43:01;8.32;;;4.25;;
6203;SDS011;3135;42.602;23.468;2024-01-10T07:45:27;13.30;;;4.57;;
6203;SDS011;3135;42.602;23.468;2024-01-10T07:47:52;15.50;;;5.93;;
6203;SDS011;3135;42.602;23.468;2024-01-10T07:50:18;10.63;;;4.30;;
6203;SDS011;3135;42.602;23.468;2024-01-10T07:52:44;9.18;;;4.40;;
6203;SDS011;3135;42.602;23.468;2024-01-10T07:55:11;11.23;;;4.13;;
6203;SDS011;3135;42.602;23.468;2024-01-10T07:57:36;10.80;;;4.40;;
6203;SDS011;3135;42.602;23.468;2024-01-10T08:00:05;11.60;;;4.50;;
6203;SDS011;3135;42.602;23.468;2024-01-10T08:02:35;13.57;;;4.73;;
6203;SDS011;3135;42.602;23.468;2024-01-10T08:05:04;10.63;;;4.40;;
6203;SDS011;3135;42.602;23.468;2024-01-10T08:07:31;6.35;;;3.92;;
6203;SDS011;3135;42.602;23.468;2024-01-10T08:09:58;11.30;;;4.80;;
6203;SDS011;3135;42.602;23.468;2024-01-10T08:12:24;7.65;;;3.65;;
6203;SDS011;3135;42.602;23.468;2024-01-10T08:14:50;8.77;;;3.93;;
6203;SDS011;3135;42.602;23.468;2024-01-10T08:17:16;7.00;;;3.45;;
6203;SDS011;3135;42.602;23.468;2024-01-10T08:19:41;10.60;;;3.80;;
6203;SDS011;3135;42.602;23.468;2024-01-10T08:22:07;7.47;;;3.50;;
6203;SDS011;3135;42.602;23.468;2024-01-10T08:24:33;10.02;;;3.97;;
6203;SDS011;3135;42.602;23.468;2024-01-10T08:26:58;10.40;;;4.13;;
6203;SDS011;3135;42.602;23.468;2024-01-10T08:29:24;8.82;;;3.92;;
6203;SDS011;3135;42.602;23.468;2024-01-10T08:31:55;9.00;;;4.00;;
6203;SDS011;3135;42.602;23.468;2024-01-10T08:34:21;8.63;;;3.78;;
6203;SDS011;3135;42.602;23.468;2024-01-10T08:36:47;9.87;;;5.20;;
6203;SDS011;3135;42.602;23.468;2024-01-10T08:39:15;10.07;;;4.13;;
6203;SDS011;3135;42.602;23.468;2024-01-10T08:41:41;8.73;;;4.10;;
6203;SDS011;3135;42.602;23.468;2024-01-10T08:44:09;9.73;;;4.07;;
6203;SDS011;3135;42.602;23.468;2024-01-10T08:46:35;8.57;;;4.20;;
6203;SDS011;3135;42.602;23.468;2024-01-10T08:49:00;10.37;;;3.83;;
6203;SDS011;3135;42.602;23.468;2024-01-10T08:51:26;8.45;;;4.47;;
6203;SDS011;3135;42.602;23.468;2024-01-10T08:53:52;7.83;;;4.07;;
6203;SDS011;3135;42.602;23.468;2024-01-10T08:56:18;10.95;;;4.30;;
6203;SDS011;3135;42.602;23.468;2024-01-10T08:58:44;12.77;;;4.47;;
6203;SDS011;3135;42.602;23.468;2024-01-10T09:01:11;23.85;;;6.78;;
6203;SDS011;3135;42.602;23.468;2024-01-10T09:03:36;8.88;;;4.15;;
6203;SDS011;3135;42.602;23.468;2024-01-10T09:06:03;14.57;;;5.80;;
6203;SDS011;3135;42.602;23.468;2024-01-10T09:08:29;10.13;;;4.47;;
6203;SDS011;3135;42.602;23.468;2024-01-10T09:10:55;8.85;;;4.10;;
6203;SDS011;3135;42.602;23.468;2024-01-10T09:13:20;18.90;;;5.90;;
6203;SDS011;3135;42.602;23.468;2024-01-10T09:15:46;13.90;;;4.80;;
6203;SDS011;3135;42.602;23.468;2024-01-10T09:18:11;11.20;;;4.18;;
6203;SDS011;3135;42.602;23.468;2024-01-10T09:20:37;19.03;;;7.47;;
6203;SDS011;3135;42.602;23.468;2024-01-10T09:23:03;14.73;;;4.60;;
6203;SDS011;3135;42.602;23.468;2024-01-10T09:25:28;12.93;;;4.97;;
6203;SDS011;3135;42.602;23.468;2024-01-10T09:27:54;12.95;;;4.75;;
6203;SDS011;3135;42.602;23.468;2024-01-10T09:30:20;10.83;;;4.57;;
6203;SDS011;3135;42.602;23.468;2024-01-10T09:32:45;15.82;;;4.38;;
6203;SDS011;3135;42.602;23.468;2024-01-10T09:35:11;13.00;;;5.37;;
6203;SDS011;3135;42.602;23.468;2024-01-10T09:37:38;10.40;;;4.80;;
6203;SDS011;3135;42.602;23.468;2024-01-10T09:40:04;16.13;;;5.65;;
6203;SDS011;3135;42.602;23.468;2024-01-10T09:42:34;14.13;;;5.10;;
6203;SDS011;3135;42.602;23.468;2024-01-10T09:45:01;17.17;;;6.38;;
6203;SDS011;3135;42.602;23.468;2024-01-10T09:47:30;13.05;;;5.63;;
6203;SDS011;3135;42.602;23.468;2024-01-10T09:49:57;21.70;;;5.55;;
6203;SDS011;3135;42.602;23.468;2024-01-10T09:52:25;15.85;;;5.28;;
6203;SDS011;3135;42.602;23.468;2024-01-10T09:54:55;11.35;;;5.13;;
6203;SDS011;3135;42.602;23.468;2024-01-10T09:57:22;13.82;;;5.50;;
6203;SDS011;3135;42.602;23.468;2024-01-10T09:59:49;16.00;;;5.85;;
6203;SDS011;3135;42.602;23.468;2024-01-10T10:02:16;13.55;;;5.57;;
6203;SDS011;3135;42.602;23.468;2024-01-10T10:04:45;12.23;;;5.03;;
6203;SDS011;3135;42.602;23.468;2024-01-10T10:07:19;12.80;;;5.50;;
6203;SDS011;3135;42.602;23.468;2024-01-10T10:09:44;13.13;;;5.97;;
6203;SDS011;3135;42.602;23.468;2024-01-10T10:12:10;14.45;;;5.35;;
6203;SDS011;3135;42.602;23.468;2024-01-10T10:14:36;15.03;;;5.97;;
6203;SDS011;3135;42.602;23.468;2024-01-10T10:17:17;19.23;;;6.23;;
6203;SDS011;3135;42.602;23.468;2024-01-10T10:19:43;19.13;;;7.05;;
6203;SDS011;3135;42.602;23.468;2024-01-10T10:22:10;25.53;;;9.53;;
6203;SDS011;3135;42.602;23.468;2024-01-10T10:24:36;22.50;;;8.88;;
6203;SDS011;3135;42.602;23.468;2024-01-10T10:27:07;26.40;;;9.15;;
6203;SDS011;3135;42.602;23.468;2024-01-10T10:29:35;26.90;;;8.87;;
6203;SDS011;3135;42.602;23.468;2024-01-10T10:32:01;27.23;;;10.40;;
6203;SDS011;3135;42.602;23.468;2024-01-10T10:34:30;20.77;;;8.77;;
6203;SDS011;3135;42.602;23.468;2024-01-10T10:36:57;24.48;;;8.73;;
6203;SDS011;3135;42.602;23.468;2024-01-10T10:39:23;23.60;;;7.70;;
6203;SDS011;3135;42.602;23.468;2024-01-10T10:41:48;22.23;;;8.07;;
6203;SDS011;3135;42.602;23.468;2024-01-10T10:44:18;24.02;;;8.60;;
6203;SDS011;3135;42.602;23.468;2024-01-10T10:46:48;18.17;;;7.67;;
6203;SDS011;3135;42.602;23.468;2024-01-10T10:49:17;20.17;;;7.00;;
6203;SDS011;3135;42.602;23.468;2024-01-10T10:51:48;23.80;;;7.45;;
6203;SDS011;3135;42.602;23.468;2024-01-10T10:54:14;18.30;;;7.25;;
6203;SDS011;3135;42.602;23.468;2024-01-10T10:56:41;19.85;;;8.07;;
6203;SDS011;3135;42.602;23.468;2024-01-10T10:59:09;17.73;;;6.93;;
6203;SDS011;3135;42.602;23.468;2024-01-10T11:01:37;21.50;;;7.93;;
6203;SDS011;3135;42.602;23.468;2024-01-10T11:04:05;21.83;;;7.40;;
6203;SDS011;3135;42.602;23.468;2024-01-10T11:06:30;23.30;;;7.40;;
6203;SDS011;3135;42.602;23.468;2024-01-10T11:09:02;23.37;;;8.00;;
6203;SDS011;3135;42.602;23.468;2024-01-10T11:14:07;39.42;;;13.73;;
6203;SDS011;3135;42.602;23.468;2024-01-10T11:25:28;18.35;;;7.53;;
6203;SDS011;3135;42.602;23.468;2024-01-10T11:27:55;22.05;;;8.02;;
6203;SDS011;3135;42.602;23.468;2024-01-10T11:30:39;23.63;;;7.47;;
6203;SDS011;3135;42.602;23.468;2024-01-10T11:33:23;22.08;;;8.15;;
6203;SDS011;3135;42.602;23.468;2024-01-10T11:38:50;23.43;;;8.73;;
6203;SDS011;3135;42.602;23.468;2024-01-10T11:46:45;29.80;;;10.40;;
6203;SDS011;3135;42.602;23.468;2024-01-10T11:49:16;32.67;;;9.40;;
6203;SDS011;3135;42.602;23.468;2024-01-10T11:51:43;32.38;;;10.20;;
6203;SDS011;3135;42.602;23.468;2024-01-10T11:54:10;21.38;;;8.25;;
6203;SDS011;3135;42.602;23.468;2024-01-10T11:56:39;27.03;;;10.40;;
6203;SDS011;3135;42.602;23.468;2024-01-10T11:59:07;28.63;;;8.98;;
6203;SDS011;3135;42.602;23.468;2024-01-10T12:01:34;28.75;;;9.35;;
6203;SDS011;3135;42.602;23.468;2024-01-10T12:04:00;27.85;;;10.00;;
6203;SDS011;3135;42.602;23.468;2024-01-10T12:06:29;28.15;;;10.55;;
6203;SDS011;3135;42.602;23.468;2024-01-10T12:08:54;34.53;;;12.23;;
6203;SDS011;3135;42.602;23.468;2024-01-10T12:11:20;30.07;;;11.73;;
6203;SDS011;3135;42.602;23.468;2024-01-10T12:13:46;29.17;;;11.00;;
6203;SDS011;3135;42.602;23.468;2024-01-10T12:16:13;31.30;;;11.57;;
6203;SDS011;3135;42.602;23.468;2024-01-10T12:18:39;31.73;;;10.55;;
6203;SDS011;3135;42.602;23.468;2024-01-10T12:21:05;32.80;;;10.55;;
6203;SDS011;3135;42.602;23.468;2024-01-10T12:23:30;30.92;;;10.50;;
6203;SDS011;3135;42.602;23.468;2024-01-10T12:26:02;32.57;;;11.80;;
6203;SDS011;3135;42.602;23.468;2024-01-10T12:28:32;33.83;;;12.13;;
6203;SDS011;3135;42.602;23.468;2024-01-10T12:30:58;28.95;;;10.32;;
6203;SDS011;3135;42.602;23.468;2024-01-10T12:33:24;35.33;;;11.73;;
6203;SDS011;3135;42.602;23.468;2024-01-10T12:36:09;33.85;;;11.65;;
6203;SDS011;3135;42.602;23.468;2024-01-10T12:38:36;26.92;;;10.68;;
6203;SDS011;3135;42.602;23.468;2024-01-10T12:41:04;27.35;;;10.10;;
6203;SDS011;3135;42.602;23.468;2024-01-10T12:43:30;30.10;;;9.90;;
6203;SDS011;3135;42.602;23.468;2024-01-10T12:48:32;30.02;;;11.30;;
6203;SDS011;3135;42.602;23.468;2024-01-10T12:51:06;35.03;;;11.85;;
6203;SDS011;3135;42.602;23.468;2024-01-10T12:53:36;31.60;;;11.13;;
6203;SDS011;3135;42.602;23.468;2024-01-10T12:56:06;29.10;;;10.53;;
6203;SDS011;3135;42.602;23.468;2024-01-10T12:58:33;30.85;;;10.20;;
6203;SDS011;3135;42.602;23.468;2024-01-10T13:01:00;28.98;;;10.55;;
6203;SDS011;3135;42.602;23.468;2024-01-10T13:03:26;31.77;;;10.80;;
6203;SDS011;3135;42.602;23.468;2024-01-10T13:05:51;25.75;;;9.75;;
6203;SDS011;3135;42.602;23.468;2024-01-10T13:08:20;26.00;;;9.53;;
6203;SDS011;3135;42.602;23.468;2024-01-10T13:10:45;23.27;;;8.85;;
6203;SDS011;3135;42.602;23.468;2024-01-10T13:13:12;25.05;;;9.48;;
6203;SDS011;3135;42.602;23.468;2024-01-10T13:15:38;22.52;;;10.07;;
6203;SDS011;3135;42.602;23.468;2024-01-10T13:18:04;25.73;;;10.50;;
6203;SDS011;3135;42.602;23.468;2024-01-10T13:20:29;26.52;;;9.45;;
6203;SDS011;3135;42.602;23.468;2024-01-10T13:22:55;26.35;;;10.70;;
6203;SDS011;3135;42.602;23.468;2024-01-10T13:25:20;29.80;;;11.50;;
6203;SDS011;3135;42.602;23.468;2024-01-10T13:27:49;38.40;;;14.82;;
6203;SDS011;3135;42.602;23.468;2024-01-10T13:30:16;37.65;;;13.23;;
6203;SDS011;3135;42.602;23.468;2024-01-10T13:32:42;58.08;;;19.92;;
6203;SDS011;3135;42.602;23.468;2024-01-10T13:35:08;65.30;;;18.02;;
6203;SDS011;3135;42.602;23.468;2024-01-10T13:37:33;144.07;;;33.03;;
6203;SDS011;3135;42.602;23.468;2024-01-10T13:39:59;273.03;;;59.03;;
6203;SDS011;3135;42.602;23.468;2024-01-10T13:42:24;201.80;;;45.33;;
6203;SDS011;3135;42.602;23.468;2024-01-10T13:44:50;89.15;;;22.90;;
6203;SDS011;3135;42.602;23.468;2024-01-10T13:47:19;57.33;;;20.33;;
6203;SDS011;3135;42.602;23.468;2024-01-10T13:49:46;29.13;;;11.00;;
6203;SDS011;3135;42.602;23.468;2024-01-10T13:52:12;28.20;;;10.67;;
6203;SDS011;3135;42.602;23.468;2024-01-10T13:54:38;25.70;;;10.40;;
6203;SDS011;3135;42.602;23.468;2024-01-10T13:57:03;27.90;;;10.50;;
6203;SDS011;3135;42.602;23.468;2024-01-10T13:59:29;34.43;;;12.73;;
6203;SDS011;3135;42.602;23.468;2024-01-10T14:01:54;38.93;;;14.50;;
6203;SDS011;3135;42.602;23.468;2024-01-10T14:04:20;26.98;;;11.02;;
6203;SDS011;3135;42.602;23.468;2024-01-10T14:06:47;25.63;;;8.90;;
6203;SDS011;3135;42.602;23.468;2024-01-10T14:09:13;50.67;;;19.58;;
6203;SDS011;3135;42.602;23.468;2024-01-10T14:11:39;41.33;;;18.80;;
6203;SDS011;3135;42.602;23.468;2024-01-10T14:14:04;32.63;;;12.30;;
6203;SDS011;3135;42.602;23.468;2024-01-10T14:16:30;22.33;;;8.35;;
6203;SDS011;3135;42.602;23.468;2024-01-10T14:18:56;22.77;;;8.70;;
6203;SDS011;3135;42.602;23.468;2024-01-10T14:21:22;44.60;;;15.57;;
6203;SDS011;3135;42.602;23.468;2024-01-10T14:23:48;47.35;;;15.73;;
6203;SDS011;3135;42.602;23.468;2024-01-10T14:26:14;108.32;;;28.98;;
6203;SDS011;3135;42.602;23.468;2024-01-10T14:28:40;58.30;;;21.08;;
6203;SDS011;3135;42.602;23.468;2024-01-10T14:31:06;49.07;;;19.63;;
6203;SDS011;3135;42.602;23.468;2024-01-10T14:33:31;50.47;;;25.25;;
6203;SDS011;3135;42.602;23.468;2024-01-10T14:35:57;31.63;;;16.60;;
6203;SDS011;3135;42.602;23.468;2024-01-10T14:38:24;34.93;;;16.90;;
6203;SDS011;3135;42.602;23.468;2024-01-10T14:40:49;36.33;;;17.65;;
6203;SDS011;3135;42.602;23.468;2024-01-10T14:43:14;32.23;;;16.10;;
6203;SDS011;3135;42.602;23.468;2024-01-10T14:45:40;51.50;;;25.10;;
6203;SDS011;3135;42.602;23.468;2024-01-10T14:48:05;48.80;;;23.80;;
6203;SDS011;3135;42.602;23.468;2024-01-10T14:50:32;35.13;;;16.48;;
6203;SDS011;3135;42.602;23.468;2024-01-10T14:52:57;53.87;;;25.33;;
6203;SDS011;3135;42.602;23.468;2024-01-10T14:55:23;47.33;;;22.08;;
6203;SDS011;3135;42.602;23.468;2024-01-10T14:57:49;41.13;;;20.43;;
6203;SDS011;3135;42.602;23.468;2024-01-10T15:00:15;31.52;;;16.10;;
6203;SDS011;3135;42.602;23.468;2024-01-10T15:02:41;31.27;;;13.98;;
6203;SDS011;3135;42.602;23.468;2024-01-10T15:05:06;30.70;;;15.50;;
6203;SDS011;3135;42.602;23.468;2024-01-10T15:07:32;41.95;;;18.13;;